sensor_id;sensor_type;location;lat;lon;timestamp;P1;durP1;ratioP1;P2;durP2;ratioP2
66739;SDS011;53653;52.188;8.602;2023-04-30T00:00:54;12.48;;;5.07;;
66739;SDS011;53653;52.188;8.602;2023-04-30T00:03:20;11.13;;;4.60;;
66739;SDS011;53653;52.188;8.602;2023-04-30T00:05:48;15.02;;;5.25;;
66739;SDS011;53653;52.188;8.602;2023-04-30T00:08:15;13.52;;;4.70;;
66739;SDS011;53653;52.188;8.602;2023-04-30T00:10:41;11.97;;;4.50;;
66739;SDS011;53653;52.188;8.602;2023-04-30T00:13:07;10.00;;;4.57;;
66739;SDS011;53653;52.188;8.602;2023-04-30T00:15:34;14.32;;;5.07;;
66739;SDS011;53653;52.188;8.602;2023-04-30T00:18:00;9.43;;;4.28;;
66739;SDS011;53653;52.188;8.602;2023-04-30T00:20:26;12.68;;;4.00;;
66739;SDS011;53653;52.188;8.602;2023-04-30T00:22:51;10.53;;;3.90;;
66739;SDS011;53653;52.188;8.602;2023-04-30T00:25:17;13.43;;;4.57;;
66739;SDS011;53653;52.188;8.602;2023-04-30T00:27:42;13.38;;;4.55;;
66739;SDS011;53653;52.188;8.602;2023-04-30T00:30:08;10.37;;;4.30;;
66739;SDS011;53653;52.188;8.602;2023-04-30T00:32:33;10.20;;;4.70;;
66739;SDS011;53653;52.188;8.602;2023-04-30T00:35:02;12.10;;;4.33;;
66739;SDS011;53653;52.188;8.602;2023-04-30T00:37:28;13.60;;;4.45;;
66739;SDS011;53653;52.188;8.602;2023-04-30T00:39:53;13.30;;;4.27;;
66739;SDS011;53653;52.188;8.602;2023-04-30T00:42:19;12.77;;;4.60;;
66739;SDS011;53653;52.188;8.602;2023-04-30T00:44:44;12.73;;;5.05;;
66739;SDS011;53653;52.188;8.602;2023-04-30T00:47:09;11.90;;;4.23;;
66739;SDS011;53653;52.188;8.602;2023-04-30T00:49:35;14.60;;;5.00;;
66739;SDS011;53653;52.188;8.602;2023-04-30T00:52:01;9.05;;;4.55;;
66739;SDS011;53653;52.188;8.602;2023-04-30T00:54:26;11.90;;;4.50;;
66739;SDS011;53653;52.188;8.602;2023-04-30T00:56:52;15.88;;;4.93;;
66739;SDS011;53653;52.188;8.602;2023-04-30T00:59:18;12.37;;;5.57;;
66739;SDS011;53653;52.188;8.602;2023-04-30T01:01:43;12.52;;;4.82;;
66739;SDS011;53653;52.188;8.602;2023-04-30T01:04:09;13.80;;;5.67;;
66739;SDS011;53653;52.188;8.602;2023-04-30T01:06:34;15.10;;;5.97;;
66739;SDS011;53653;52.188;8.602;2023-04-30T01:09:00;12.13;;;5.75;;
66739;SDS011;53653;52.188;8.602;2023-04-30T01:16:48;13.73;;;5.30;;
66739;SDS011;53653;52.188;8.602;2023-04-30T01:19:32;12.83;;;5.53;;
66739;SDS011;53653;52.188;8.602;2023-04-30T01:22:01;12.65;;;5.55;;
66739;SDS011;53653;52.188;8.602;2023-04-30T01:29:47;14.77;;;6.20;;
66739;SDS011;53653;52.188;8.602;2023-04-30T01:32:14;13.83;;;5.47;;
66739;SDS011;53653;52.188;8.602;2023-04-30T01:34:40;13.70;;;5.60;;
66739;SDS011;53653;52.188;8.602;2023-04-30T01:42:21;12.98;;;6.43;;
66739;SDS011;53653;52.188;8.602;2023-04-30T01:47:38;16.63;;;6.18;;
66739;SDS011;53653;52.188;8.602;2023-04-30T01:52:59;12.95;;;5.55;;
66739;SDS011;53653;52.188;8.602;2023-04-30T01:55:33;16.45;;;6.15;;
66739;SDS011;53653;52.188;8.602;2023-04-30T01:58:04;14.47;;;5.00;;
66739;SDS011;53653;52.188;8.602;2023-04-30T02:00:31;15.65;;;6.13;;
66739;SDS011;53653;52.188;8.602;2023-04-30T02:02:58;13.73;;;5.45;;
66739;SDS011;53653;52.188;8.602;2023-04-30T02:05:23;12.27;;;5.37;;
66739;SDS011;53653;52.188;8.602;2023-04-30T02:07:50;14.30;;;5.93;;
66739;SDS011;53653;52.188;8.602;2023-04-30T02:10:17;15.20;;;5.65;;
66739;SDS011;53653;52.188;8.602;2023-04-30T02:12:45;12.73;;;5.15;;
66739;SDS011;53653;52.188;8.602;2023-04-30T02:15:10;20.03;;;5.00;;
66739;SDS011;53653;52.188;8.602;2023-04-30T02:17:39;14.95;;;5.38;;
66739;SDS011;53653;52.188;8.602;2023-04-30T02:20:04;14.80;;;5.00;;
66739;SDS011;53653;52.188;8.602;2023-04-30T02:22:31;14.90;;;4.97;;
66739;SDS011;53653;52.188;8.602;2023-04-30T02:24:56;11.70;;;4.60;;
66739;SDS011;53653;52.188;8.602;2023-04-30T02:27:23;12.50;;;4.60;;
66739;SDS011;53653;52.188;8.602;2023-04-30T02:29:52;12.65;;;5.07;;
66739;SDS011;53653;52.188;8.602;2023-04-30T02:32:18;12.27;;;6.03;;
66739;SDS011;53653;52.188;8.602;2023-04-30T02:34:44;14.10;;;6.00;;
66739;SDS011;53653;52.188;8.602;2023-04-30T02:37:09;13.90;;;6.13;;
66739;SDS011;53653;52.188;8.602;2023-04-30T02:39:35;19.45;;;5.72;;
66739;SDS011;53653;52.188;8.602;2023-04-30T02:42:00;11.50;;;4.67;;
66739;SDS011;53653;52.188;8.602;2023-04-30T02:44:27;13.10;;;5.17;;
66739;SDS011;53653;52.188;8.602;2023-04-30T02:46:53;13.05;;;5.38;;
66739;SDS011;53653;52.188;8.602;2023-04-30T02:49:19;12.73;;;5.10;;
66739;SDS011;53653;52.188;8.602;2023-04-30T02:51:44;14.07;;;5.20;;
66739;SDS011;53653;52.188;8.602;2023-04-30T02:54:10;13.80;;;5.78;;
66739;SDS011;53653;52.188;8.602;2023-04-30T02:56:36;15.02;;;5.72;;
66739;SDS011;53653;52.188;8.602;2023-04-30T02:59:03;14.80;;;5.97;;
66739;SDS011;53653;52.188;8.602;2023-04-30T03:01:29;14.13;;;5.95;;
66739;SDS011;53653;52.188;8.602;2023-04-30T03:03:54;18.57;;;8.17;;
66739;SDS011;53653;52.188;8.602;2023-04-30T03:06:20;16.15;;;6.28;;
66739;SDS011;53653;52.188;8.602;2023-04-30T03:08:45;16.23;;;6.73;;
66739;SDS011;53653;52.188;8.602;2023-04-30T03:11:11;15.35;;;6.60;;
66739;SDS011;53653;52.188;8.602;2023-04-30T03:13:37;21.73;;;7.93;;
66739;SDS011;53653;52.188;8.602;2023-04-30T03:16:03;19.10;;;7.50;;
66739;SDS011;53653;52.188;8.602;2023-04-30T03:18:29;19.17;;;7.70;;
66739;SDS011;53653;52.188;8.602;2023-04-30T03:20:54;16.35;;;6.75;;
66739;SDS011;53653;52.188;8.602;2023-04-30T03:23:20;20.45;;;7.18;;
66739;SDS011;53653;52.188;8.602;2023-04-30T03:25:46;15.50;;;6.10;;
66739;SDS011;53653;52.188;8.602;2023-04-30T03:28:11;16.07;;;6.20;;
66739;SDS011;53653;52.188;8.602;2023-04-30T03:30:37;16.77;;;6.18;;
66739;SDS011;53653;52.188;8.602;2023-04-30T03:33:03;12.67;;;5.93;;
66739;SDS011;53653;52.188;8.602;2023-04-30T03:35:31;17.95;;;6.10;;
66739;SDS011;53653;52.188;8.602;2023-04-30T03:37:58;13.57;;;5.97;;
66739;SDS011;53653;52.188;8.602;2023-04-30T03:40:24;11.40;;;5.80;;
66739;SDS011;53653;52.188;8.602;2023-04-30T03:42:49;12.73;;;6.07;;
66739;SDS011;53653;52.188;8.602;2023-04-30T03:45:15;12.77;;;5.97;;
66739;SDS011;53653;52.188;8.602;2023-04-30T03:47:41;14.47;;;5.80;;
66739;SDS011;53653;52.188;8.602;2023-04-30T03:50:07;15.32;;;5.03;;
66739;SDS011;53653;52.188;8.602;2023-04-30T03:52:34;12.27;;;5.45;;
66739;SDS011;53653;52.188;8.602;2023-04-30T03:55:02;15.57;;;5.72;;
66739;SDS011;53653;52.188;8.602;2023-04-30T03:57:27;16.30;;;5.75;;
66739;SDS011;53653;52.188;8.602;2023-04-30T03:59:53;15.90;;;6.00;;
66739;SDS011;53653;52.188;8.602;2023-04-30T04:02:19;14.48;;;6.00;;
66739;SDS011;53653;52.188;8.602;2023-04-30T04:04:45;12.95;;;5.20;;
66739;SDS011;53653;52.188;8.602;2023-04-30T04:07:11;11.43;;;5.10;;
66739;SDS011;53653;52.188;8.602;2023-04-30T04:09:37;11.05;;;5.70;;
66739;SDS011;53653;52.188;8.602;2023-04-30T04:12:02;14.23;;;5.03;;
66739;SDS011;53653;52.188;8.602;2023-04-30T04:14:28;17.05;;;5.20;;
66739;SDS011;53653;52.188;8.602;2023-04-30T04:16:53;12.07;;;5.03;;
66739;SDS011;53653;52.188;8.602;2023-04-30T04:19:22;12.55;;;5.38;;
66739;SDS011;53653;52.188;8.602;2023-04-30T04:21:48;15.20;;;5.43;;
66739;SDS011;53653;52.188;8.602;2023-04-30T04:24:15;14.85;;;5.63;;
66739;SDS011;53653;52.188;8.602;2023-04-30T04:26:41;14.60;;;5.90;;
66739;SDS011;53653;52.188;8.602;2023-04-30T04:29:07;15.53;;;5.97;;
66739;SDS011;53653;52.188;8.602;2023-04-30T04:31:35;13.68;;;6.18;;
66739;SDS011;53653;52.188;8.602;2023-04-30T04:34:01;20.85;;;6.47;;
66739;SDS011;53653;52.188;8.602;2023-04-30T04:36:29;15.73;;;6.10;;
66739;SDS011;53653;52.188;8.602;2023-04-30T04:38:56;18.15;;;6.90;;
66739;SDS011;53653;52.188;8.602;2023-04-30T04:41:32;14.38;;;6.20;;
66739;SDS011;53653;52.188;8.602;2023-04-30T04:43:59;15.48;;;6.13;;
66739;SDS011;53653;52.188;8.602;2023-04-30T04:46:26;15.10;;;5.97;;
66739;SDS011;53653;52.188;8.602;2023-04-30T04:48:53;14.00;;;5.60;;
66739;SDS011;53653;52.188;8.602;2023-04-30T04:51:18;16.60;;;5.35;;
66739;SDS011;53653;52.188;8.602;2023-04-30T04:53:44;15.45;;;5.32;;
66739;SDS011;53653;52.188;8.602;2023-04-30T04:56:11;15.27;;;5.55;;
66739;SDS011;53653;52.188;8.602;2023-04-30T04:58:38;14.40;;;5.87;;
66739;SDS011;53653;52.188;8.602;2023-04-30T05:01:04;13.25;;;5.28;;
66739;SDS011;53653;52.188;8.602;2023-04-30T05:03:33;13.18;;;5.75;;
66739;SDS011;53653;52.188;8.602;2023-04-30T05:06:01;12.52;;;4.90;;
66739;SDS011;53653;52.188;8.602;2023-04-30T05:08:27;18.70;;;5.10;;
66739;SDS011;53653;52.188;8.602;2023-04-30T05:10:52;16.55;;;6.32;;
66739;SDS011;53653;52.188;8.602;2023-04-30T05:13:18;13.90;;;4.70;;
66739;SDS011;53653;52.188;8.602;2023-04-30T05:15:43;12.67;;;4.90;;
66739;SDS011;53653;52.188;8.602;2023-04-30T05:18:08;15.43;;;4.50;;
66739;SDS011;53653;52.188;8.602;2023-04-30T05:20:34;16.38;;;5.22;;
66739;SDS011;53653;52.188;8.602;2023-04-30T05:22:59;12.27;;;5.23;;
66739;SDS011;53653;52.188;8.602;2023-04-30T05:25:25;12.83;;;4.83;;
66739;SDS011;53653;52.188;8.602;2023-04-30T05:27:50;14.27;;;4.63;;
66739;SDS011;53653;52.188;8.602;2023-04-30T05:30:16;13.10;;;4.40;;
66739;SDS011;53653;52.188;8.602;2023-04-30T05:32:41;17.93;;;4.87;;
66739;SDS011;53653;52.188;8.602;2023-04-30T05:35:07;15.50;;;4.60;;
66739;SDS011;53653;52.188;8.602;2023-04-30T05:37:33;17.13;;;4.77;;
66739;SDS011;53653;52.188;8.602;2023-04-30T05:39:58;15.20;;;4.70;;
66739;SDS011;53653;52.188;8.602;2023-04-30T05:42:24;15.40;;;4.30;;
66739;SDS011;53653;52.188;8.602;2023-04-30T05:44:49;12.70;;;4.97;;
66739;SDS011;53653;52.188;8.602;2023-04-30T05:47:15;10.75;;;4.20;;
66739;SDS011;53653;52.188;8.602;2023-04-30T05:49:40;18.17;;;4.23;;
66739;SDS011;53653;52.188;8.602;2023-04-30T05:52:06;13.20;;;4.07;;
66739;SDS011;53653;52.188;8.602;2023-04-30T05:54:31;13.40;;;4.90;;
66739;SDS011;53653;52.188;8.602;2023-04-30T05:56:57;14.10;;;4.97;;
66739;SDS011;53653;52.188;8.602;2023-04-30T05:59:22;13.93;;;5.60;;
66739;SDS011;53653;52.188;8.602;2023-04-30T06:01:48;12.52;;;4.43;;
66739;SDS011;53653;52.188;8.602;2023-04-30T06:04:13;12.00;;;4.83;;
66739;SDS011;53653;52.188;8.602;2023-04-30T06:06:39;17.53;;;5.43;;
66739;SDS011;53653;52.188;8.602;2023-04-30T06:09:04;16.38;;;4.82;;
66739;SDS011;53653;52.188;8.602;2023-04-30T06:11:30;16.17;;;4.77;;
66739;SDS011;53653;52.188;8.602;2023-04-30T06:13:56;12.60;;;4.50;;
66739;SDS011;53653;52.188;8.602;2023-04-30T06:16:22;11.98;;;4.47;;
66739;SDS011;53653;52.188;8.602;2023-04-30T06:18:48;12.43;;;4.45;;
66739;SDS011;53653;52.188;8.602;2023-04-30T06:21:14;10.87;;;4.00;;
66739;SDS011;53653;52.188;8.602;2023-04-30T06:23:39;17.20;;;4.93;;
66739;SDS011;53653;52.188;8.602;2023-04-30T06:26:05;14.70;;;4.60;;
66739;SDS011;53653;52.188;8.602;2023-04-30T06:28:30;11.90;;;4.73;;
66739;SDS011;53653;52.188;8.602;2023-04-30T06:30:57;12.88;;;4.68;;
66739;SDS011;53653;52.188;8.602;2023-04-30T06:33:25;11.70;;;4.37;;
66739;SDS011;53653;52.188;8.602;2023-04-30T06:35:50;15.35;;;4.03;;
66739;SDS011;53653;52.188;8.602;2023-04-30T06:38:19;11.65;;;4.30;;
66739;SDS011;53653;52.188;8.602;2023-04-30T06:40:45;11.80;;;4.23;;
66739;SDS011;53653;52.188;8.602;2023-04-30T06:43:10;12.40;;;3.25;;
66739;SDS011;53653;52.188;8.602;2023-04-30T06:45:36;10.57;;;3.20;;
66739;SDS011;53653;52.188;8.602;2023-04-30T06:48:02;14.00;;;4.35;;
66739;SDS011;53653;52.188;8.602;2023-04-30T06:50:27;7.33;;;3.17;;
66739;SDS011;53653;52.188;8.602;2023-04-30T06:52:53;13.47;;;3.50;;
66739;SDS011;53653;52.188;8.602;2023-04-30T06:55:18;12.07;;;3.70;;
66739;SDS011;53653;52.188;8.602;2023-04-30T06:57:44;13.63;;;4.27;;
66739;SDS011;53653;52.188;8.602;2023-04-30T07:00:10;14.13;;;4.33;;
66739;SDS011;53653;52.188;8.602;2023-04-30T07:02:36;10.82;;;3.75;;
66739;SDS011;53653;52.188;8.602;2023-04-30T07:05:02;11.57;;;3.65;;
66739;SDS011;53653;52.188;8.602;2023-04-30T07:07:28;17.47;;;3.87;;
66739;SDS011;53653;52.188;8.602;2023-04-30T07:09:53;12.43;;;3.90;;
66739;SDS011;53653;52.188;8.602;2023-04-30T07:12:19;11.95;;;3.78;;
66739;SDS011;53653;52.188;8.602;2023-04-30T07:14:46;9.90;;;3.88;;
66739;SDS011;53653;52.188;8.602;2023-04-30T07:17:11;13.30;;;4.17;;
66739;SDS011;53653;52.188;8.602;2023-04-30T07:19:37;14.50;;;4.80;;
66739;SDS011;53653;52.188;8.602;2023-04-30T07:22:02;9.00;;;3.33;;
66739;SDS011;53653;52.188;8.602;2023-04-30T07:24:28;12.75;;;3.47;;
66739;SDS011;53653;52.188;8.602;2023-04-30T07:26:53;8.93;;;3.20;;
66739;SDS011;53653;52.188;8.602;2023-04-30T07:29:19;9.13;;;3.03;;
66739;SDS011;53653;52.188;8.602;2023-04-30T07:31:44;10.90;;;3.45;;
66739;SDS011;53653;52.188;8.602;2023-04-30T07:34:10;14.90;;;4.13;;
66739;SDS011;53653;52.188;8.602;2023-04-30T07:36:37;15.57;;;4.28;;
66739;SDS011;53653;52.188;8.602;2023-04-30T07:39:03;16.17;;;4.38;;
66739;SDS011;53653;52.188;8.602;2023-04-30T07:41:29;13.27;;;4.37;;
66739;SDS011;53653;52.188;8.602;2023-04-30T07:43:55;8.63;;;3.40;;
66739;SDS011;53653;52.188;8.602;2023-04-30T07:46:21;10.60;;;4.10;;
66739;SDS011;53653;52.188;8.602;2023-04-30T07:48:49;11.63;;;4.70;;
66739;SDS011;53653;52.188;8.602;2023-04-30T07:51:14;13.33;;;3.83;;
66739;SDS011;53653;52.188;8.602;2023-04-30T07:53:40;10.90;;;4.30;;
66739;SDS011;53653;52.188;8.602;2023-04-30T07:56:05;14.47;;;4.13;;
66739;SDS011;53653;52.188;8.602;2023-04-30T07:58:32;18.10;;;4.63;;
66739;SDS011;53653;52.188;8.602;2023-04-30T08:00:57;14.23;;;4.53;;
66739;SDS011;53653;52.188;8.602;2023-04-30T08:03:23;9.97;;;3.97;;
66739;SDS011;53653;52.188;8.602;2023-04-30T08:05:48;12.85;;;3.88;;
66739;SDS011;53653;52.188;8.602;2023-04-30T08:08:14;12.23;;;4.57;;
66739;SDS011;53653;52.188;8.602;2023-04-30T08:10:40;11.97;;;3.30;;
66739;SDS011;53653;52.188;8.602;2023-04-30T08:13:06;13.23;;;4.00;;
66739;SDS011;53653;52.188;8.602;2023-04-30T08:15:32;14.98;;;4.00;;
66739;SDS011;53653;52.188;8.602;2023-04-30T08:17:58;12.43;;;3.88;;
66739;SDS011;53653;52.188;8.602;2023-04-30T08:20:24;13.90;;;3.20;;
66739;SDS011;53653;52.188;8.602;2023-04-30T08:22:50;8.60;;;3.17;;
66739;SDS011;53653;52.188;8.602;2023-04-30T08:25:16;14.17;;;3.10;;
66739;SDS011;53653;52.188;8.602;2023-04-30T08:27:41;12.32;;;4.20;;
66739;SDS011;53653;52.188;8.602;2023-04-30T08:30:07;12.43;;;3.47;;
66739;SDS011;53653;52.188;8.602;2023-04-30T08:32:33;13.43;;;3.85;;
66739;SDS011;53653;52.188;8.602;2023-04-30T08:35:05;7.97;;;3.10;;
66739;SDS011;53653;52.188;8.602;2023-04-30T08:37:32;8.68;;;2.55;;
66739;SDS011;53653;52.188;8.602;2023-04-30T08:39:58;14.23;;;3.95;;
66739;SDS011;53653;52.188;8.602;2023-04-30T08:42:24;10.90;;;3.60;;
66739;SDS011;53653;52.188;8.602;2023-04-30T08:44:51;6.57;;;2.22;;
66739;SDS011;53653;52.188;8.602;2023-04-30T08:47:17;10.90;;;3.50;;
66739;SDS011;53653;52.188;8.602;2023-04-30T08:49:44;12.57;;;3.80;;
66739;SDS011;53653;52.188;8.602;2023-04-30T08:52:11;8.90;;;2.45;;
66739;SDS011;53653;52.188;8.602;2023-04-30T08:54:36;8.52;;;3.40;;
66739;SDS011;53653;52.188;8.602;2023-04-30T08:57:02;11.50;;;3.43;;
66739;SDS011;53653;52.188;8.602;2023-04-30T08:59:28;13.80;;;4.10;;
66739;SDS011;53653;52.188;8.602;2023-04-30T09:01:54;12.20;;;3.40;;
66739;SDS011;53653;52.188;8.602;2023-04-30T09:04:20;15.65;;;3.20;;
66739;SDS011;53653;52.188;8.602;2023-04-30T09:06:45;10.13;;;3.10;;
66739;SDS011;53653;52.188;8.602;2023-04-30T09:09:12;11.77;;;3.00;;
66739;SDS011;53653;52.188;8.602;2023-04-30T09:11:39;8.48;;;2.97;;
66739;SDS011;53653;52.188;8.602;2023-04-30T09:14:06;8.18;;;2.85;;
66739;SDS011;53653;52.188;8.602;2023-04-30T09:16:47;12.40;;;4.30;;
66739;SDS011;53653;52.188;8.602;2023-04-30T09:19:24;12.55;;;3.20;;
66739;SDS011;53653;52.188;8.602;2023-04-30T09:21:51;13.32;;;2.95;;
66739;SDS011;53653;52.188;8.602;2023-04-30T09:24:17;10.13;;;3.58;;
66739;SDS011;53653;52.188;8.602;2023-04-30T09:26:43;14.23;;;2.93;;
66739;SDS011;53653;52.188;8.602;2023-04-30T09:29:11;9.80;;;3.35;;
66739;SDS011;53653;52.188;8.602;2023-04-30T09:31:37;9.20;;;3.13;;
66739;SDS011;53653;52.188;8.602;2023-04-30T09:34:03;14.13;;;3.53;;
66739;SDS011;53653;52.188;8.602;2023-04-30T09:36:30;15.02;;;3.88;;
66739;SDS011;53653;52.188;8.602;2023-04-30T09:39:06;12.10;;;3.97;;
66739;SDS011;53653;52.188;8.602;2023-04-30T09:41:32;9.53;;;3.07;;
66739;SDS011;53653;52.188;8.602;2023-04-30T09:43:59;10.73;;;3.05;;
66739;SDS011;53653;52.188;8.602;2023-04-30T09:46:31;10.15;;;3.33;;
66739;SDS011;53653;52.188;8.602;2023-04-30T09:48:58;11.63;;;3.27;;
66739;SDS011;53653;52.188;8.602;2023-04-30T09:51:25;11.63;;;3.20;;
